Fruitland, Washington
Current Conditions -  °F | °C
As of 12:53 PM on Friday 19 Dec 2014 (Local Time) from KDEW Reporting Station
Overcast Overcast  
Wind Chill: 35°   Ceiling: 1700
Heat Index: 41°   Visibility: 10mi
Dew Point: 37°   Wind: 9mph
Humidity: 86%   Direction: 190°S
Pressure: 29.9"   Gusts: NA
Location:  48.07°N, 118.2°W
Report Text: KDEW 192053Z AUTO 19008KT 10SM OVC017 05/03 A2990 RMK AO2 SLP137 60000 T00500028 53004
Loading
Personal Weather Stations






























Interactive Weather Map New forecast layout! Learn more

10-Day Weather Forecast

Advertisements
Track Severe Weather on mobile